Time;durP1;ratioP1;P1;durP2;ratioP2;P2;SDS_P1;SDS_P2;PMS_P1;PMS_P2;Temp;Humidity;BMP_temperature;BMP_pressure;BME280_temperature;BME280_humidity;BME280_pressure;Samples;Min_cycle;Max_cycle;Signal;HPM_P1;HPM_P2
2023/08/05 00:01:06;;;;;;;4.30;1.85;;;18.10;99.90;;;;;;5132829;28;20031;-70
2023/08/05 00:03:32;;;;;;;3.88;1.70;;;18.10;99.90;;;;;;5114815;28;20023;-70
2023/08/05 00:05:58;;;;;;;4.10;1.58;;;18.10;99.90;;;;;;5132896;28;20042;-70
2023/08/05 00:08:24;;;;;;;3.40;1.67;;;18.10;99.90;;;;;;5133253;28;20446;-71
2023/08/05 00:10:50;;;;;;;3.80;1.50;;;18.10;99.90;;;;;;5133109;28;20045;-70
2023/08/05 00:13:16;;;;;;;2.50;1.65;;;18.10;99.90;;;;;;5133502;27;20063;-69
2023/08/05 00:15:42;;;;;;;3.92;1.90;;;18.00;99.90;;;;;;5118262;27;20058;-69
2023/08/05 00:18:08;;;;;;;4.10;2.20;;;18.10;99.90;;;;;;5117776;27;20548;-70
2023/08/05 00:20:34;;;;;;;3.92;1.85;;;18.10;99.90;;;;;;5137023;27;20106;-69
2023/08/05 00:22:59;;;;;;;4.38;1.75;;;18.10;99.90;;;;;;5135948;27;20025;-69
2023/08/05 00:25:25;;;;;;;4.35;1.60;;;18.10;99.90;;;;;;5136308;27;20031;-69
2023/08/05 00:27:51;;;;;;;3.30;1.70;;;18.10;99.90;;;;;;5119829;27;20062;-69
2023/08/05 00:30:16;;;;;;;2.70;1.48;;;18.10;99.90;;;;;;5115942;28;20042;-69
2023/08/05 00:32:42;;;;;;;2.58;1.33;;;18.10;99.90;;;;;;5115617;28;20023;-69
2023/08/05 00:35:08;;;;;;;5.28;1.55;;;18.10;99.90;;;;;;5115183;28;20023;-69
2023/08/05 00:37:34;;;;;;;3.90;1.50;;;18.10;99.90;;;;;;5115922;28;20094;-69
2023/08/05 00:40:00;;;;;;;6.07;1.60;;;18.10;99.90;;;;;;5115350;28;20028;-69
2023/08/05 00:42:27;;;;;;;4.50;1.70;;;18.10;99.90;;;;;;5115993;28;20513;-70
2023/08/05 00:44:53;;;;;;;2.65;1.50;;;18.10;99.90;;;;;;5097351;28;20378;-69
2023/08/05 00:47:19;;;;;;;3.55;1.60;;;18.10;99.90;;;;;;5115767;28;20027;-69
2023/08/05 00:49:47;;;;;;;4.93;1.92;;;18.10;99.90;;;;;;5115104;28;20438;-69
2023/08/05 00:52:15;;;;;;;3.80;1.55;;;18.10;99.90;;;;;;5114721;28;20476;-69
2023/08/05 00:54:40;;;;;;;1.83;1.33;;;18.10;99.90;;;;;;5115192;28;20442;-69
2023/08/05 00:57:07;;;;;;;2.40;1.60;;;18.10;99.90;;;;;;5115300;28;20111;-69
2023/08/05 00:59:33;;;;;;;3.08;1.40;;;18.10;99.90;;;;;;5115329;28;20051;-69
2023/08/05 01:01:58;;;;;;;3.80;2.22;;;18.00;99.90;;;;;;5114901;28;20034;-69
2023/08/05 01:04:24;;;;;;;3.17;1.98;;;18.00;99.90;;;;;;5129262;27;20034;-69
2023/08/05 01:06:50;;;;;;;5.70;1.80;;;18.00;99.90;;;;;;5136058;27;20027;-69
2023/08/05 01:09:16;;;;;;;5.70;2.03;;;18.00;99.90;;;;;;5116874;27;20034;-69
2023/08/05 01:11:42;;;;;;;6.47;1.40;;;18.00;99.90;;;;;;5135583;27;20027;-69
2023/08/05 01:14:07;;;;;;;4.70;1.35;;;17.90;99.90;;;;;;5135563;27;20068;-70
2023/08/05 01:16:33;;;;;;;3.17;1.85;;;18.00;99.90;;;;;;5117204;27;20023;-69
2023/08/05 01:19:00;;;;;;;2.47;1.70;;;17.90;99.90;;;;;;5134855;27;20080;-71
2023/08/05 01:21:45;;;;;;;4.72;2.10;;;17.90;99.90;;;;;;5135207;27;20481;-70
2023/08/05 01:24:19;;;;;;;2.97;1.98;;;17.90;99.90;;;;;;5135255;27;20038;-70
2023/08/05 01:26:46;;;;;;;3.78;2.28;;;17.90;99.90;;;;;;5135447;27;20027;-70
2023/08/05 01:29:11;;;;;;;3.53;2.58;;;17.80;99.90;;;;;;5134897;27;20026;-70
2023/08/05 01:31:37;;;;;;;7.35;3.15;;;17.80;99.90;;;;;;5134966;27;20031;-70
2023/08/05 01:34:04;;;;;;;4.95;3.17;;;17.80;99.90;;;;;;5134538;27;20031;-70
2023/08/05 01:36:31;;;;;;;5.32;3.45;;;17.80;99.90;;;;;;5135114;27;20076;-70
2023/08/05 01:38:57;;;;;;;6.60;3.70;;;17.70;99.90;;;;;;5135422;27;20047;-70
2023/08/05 01:41:23;;;;;;;5.70;3.35;;;17.70;99.90;;;;;;5134827;27;20054;-70
2023/08/05 01:43:48;;;;;;;7.85;4.03;;;17.70;99.90;;;;;;5134686;27;20420;-69
2023/08/05 01:46:14;;;;;;;4.65;3.13;;;17.70;99.90;;;;;;5134289;27;20023;-70
2023/08/05 01:48:40;;;;;;;4.07;3.58;;;17.70;99.90;;;;;;5134406;27;20043;-70
2023/08/05 01:51:05;;;;;;;3.72;2.95;;;17.70;99.90;;;;;;5115927;27;20031;-70
2023/08/05 01:53:31;;;;;;;5.20;2.70;;;17.60;99.90;;;;;;5134855;27;20028;-70
2023/08/05 01:55:56;;;;;;;2.60;2.33;;;17.60;99.90;;;;;;5134739;27;20033;-69
2023/08/05 01:58:22;;;;;;;2.53;2.20;;;17.60;99.90;;;;;;5134357;27;20505;-71
2023/08/05 02:00:51;;;;;;;4.85;2.05;;;17.60;99.90;;;;;;5116351;27;20487;-71
2023/08/05 02:03:17;;;;;;;3.25;2.13;;;17.60;99.90;;;;;;5134233;27;20030;-71
2023/08/05 02:05:42;;;;;;;6.43;2.20;;;17.60;99.90;;;;;;5134747;27;20027;-70
2023/08/05 02:08:08;;;;;;;3.30;2.05;;;17.60;99.90;;;;;;5115705;27;20023;-70
2023/08/05 02:10:34;;;;;;;4.07;1.90;;;17.60;99.90;;;;;;5134485;27;20031;-70
2023/08/05 02:12:59;;;;;;;3.45;2.10;;;17.60;99.90;;;;;;5134585;27;20367;-73
2023/08/05 02:15:26;;;;;;;3.80;2.08;;;17.60;99.90;;;;;;5134458;27;20030;-70
2023/08/05 02:17:52;;;;;;;3.20;1.90;;;17.60;99.90;;;;;;5134415;27;20033;-68
2023/08/05 02:20:17;;;;;;;4.40;2.17;;;17.60;99.90;;;;;;5133673;27;20102;-71
2023/08/05 02:22:43;;;;;;;2.70;1.73;;;17.60;99.90;;;;;;5134470;27;20469;-70
2023/08/05 02:25:08;;;;;;;4.43;2.05;;;17.60;99.90;;;;;;5119227;27;20032;-71
2023/08/05 02:27:34;;;;;;;3.38;1.80;;;17.60;99.90;;;;;;5113462;28;20111;-69
2023/08/05 02:30:00;;;;;;;2.90;1.90;;;17.60;99.90;;;;;;5113642;28;20122;-70
2023/08/05 02:32:25;;;;;;;4.60;2.25;;;17.50;99.90;;;;;;5094823;28;20034;-69
2023/08/05 02:34:51;;;;;;;4.22;1.88;;;17.50;99.90;;;;;;5113215;28;20443;-69
2023/08/05 02:37:16;;;;;;;6.55;1.95;;;17.50;99.90;;;;;;5112686;28;20073;-69
2023/08/05 02:39:42;;;;;;;3.90;1.90;;;17.50;99.90;;;;;;5113477;28;20024;-69
2023/08/05 02:42:08;;;;;;;2.90;2.13;;;17.50;99.90;;;;;;5113126;28;20047;-69
2023/08/05 02:44:33;;;;;;;3.80;1.40;;;17.50;99.90;;;;;;5113719;28;20063;-69
2023/08/05 02:46:59;;;;;;;2.65;1.58;;;17.50;99.90;;;;;;5113631;28;20306;-69
2023/08/05 02:49:24;;;;;;;2.35;1.35;;;17.50;99.90;;;;;;5113006;28;20139;-69
2023/08/05 02:51:50;;;;;;;3.13;1.40;;;17.50;99.90;;;;;;5113280;28;20051;-69
2023/08/05 02:54:19;;;;;;;4.47;1.38;;;17.50;99.90;;;;;;5094696;28;20027;-69
2023/08/05 02:56:45;;;;;;;3.05;1.55;;;17.50;99.90;;;;;;5130560;27;20023;-69
2023/08/05 02:59:11;;;;;;;2.08;1.40;;;17.50;99.90;;;;;;5133377;27;20032;-70
2023/08/05 03:01:36;;;;;;;3.00;1.63;;;17.50;99.90;;;;;;5133499;28;20475;-69
2023/08/05 03:04:02;;;;;;;3.00;1.60;;;17.50;99.90;;;;;;5133759;28;20102;-70
2023/08/05 03:06:28;;;;;;;1.60;1.13;;;17.60;99.90;;;;;;5133273;28;20037;-69
2023/08/05 03:08:54;;;;;;;1.52;1.38;;;17.60;99.90;;;;;;5115361;28;20019;-69
2023/08/05 03:11:20;;;;;;;4.03;1.38;;;17.60;99.90;;;;;;5133115;28;20118;-69
2023/08/05 03:13:45;;;;;;;2.67;1.67;;;17.60;99.90;;;;;;5133688;28;20072;-69
2023/08/05 03:16:13;;;;;;;2.90;1.40;;;17.60;99.90;;;;;;5133240;28;20031;-69
2023/08/05 03:18:39;;;;;;;3.10;1.23;;;17.50;99.90;;;;;;5133522;28;20023;-69
2023/08/05 03:21:04;;;;;;;3.25;1.63;;;17.50;99.90;;;;;;5133416;28;20046;-72
2023/08/05 03:23:30;;;;;;;2.85;1.80;;;17.60;99.90;;;;;;5133470;28;20106;-69
2023/08/05 03:25:56;;;;;;;2.42;1.70;;;17.60;99.90;;;;;;5133179;28;20364;-69
2023/08/05 03:28:22;;;;;;;4.05;1.73;;;17.60;99.90;;;;;;5132860;28;20084;-69
2023/08/05 03:30:47;;;;;;;4.30;1.52;;;17.60;99.90;;;;;;5133362;28;20091;-69
2023/08/05 03:33:13;;;;;;;5.28;2.10;;;17.60;99.90;;;;;;5133015;28;20375;-69
2023/08/05 03:35:43;;;;;;;3.28;1.48;;;17.60;99.90;;;;;;5133630;28;20023;-69
2023/08/05 03:38:09;;;;;;;3.70;1.50;;;17.60;99.90;;;;;;5132647;28;20399;-69
2023/08/05 03:40:34;;;;;;;2.85;1.67;;;17.60;99.90;;;;;;5133359;28;20027;-69
2023/08/05 03:43:01;;;;;;;4.38;1.90;;;17.60;99.90;;;;;;5133065;28;20519;-70
2023/08/05 03:45:27;;;;;;;2.75;1.60;;;17.60;99.90;;;;;;5132595;28;20027;-69
2023/08/05 03:47:53;;;;;;;2.83;1.52;;;17.60;99.90;;;;;;5133026;27;20152;-69
2023/08/05 03:50:20;;;;;;;4.45;1.92;;;17.60;99.90;;;;;;5136870;27;20546;-69
2023/08/05 03:52:49;;;;;;;5.18;1.63;;;17.60;99.90;;;;;;5137011;27;20031;-69
2023/08/05 03:55:16;;;;;;;3.60;1.80;;;17.60;99.90;;;;;;5136356;27;20023;-69
2023/08/05 03:57:41;;;;;;;4.55;1.88;;;17.60;99.90;;;;;;5137039;27;20051;-69
2023/08/05 04:00:11;;;;;;;3.97;1.70;;;17.60;99.90;;;;;;5137730;27;20429;-69
2023/08/05 04:02:37;;;;;;;4.10;1.60;;;17.60;99.90;;;;;;5137380;27;20028;-69
2023/08/05 04:05:04;;;;;;;2.78;1.58;;;17.60;99.90;;;;;;5138821;27;20025;-69
2023/08/05 04:07:30;;;;;;;3.85;1.83;;;17.60;99.90;;;;;;5136515;27;20027;-69
2023/08/05 04:09:56;;;;;;;3.80;2.20;;;17.60;99.90;;;;;;5136555;27;20039;-69
2023/08/05 04:12:22;;;;;;;4.25;1.98;;;17.60;99.90;;;;;;5118137;27;20027;-69
2023/08/05 04:14:50;;;;;;;7.80;2.10;;;17.60;99.90;;;;;;5136820;27;20034;-69
2023/08/05 04:17:17;;;;;;;4.68;2.10;;;17.70;99.90;;;;;;5136296;27;20019;-69
2023/08/05 04:19:43;;;;;;;5.13;1.98;;;17.70;99.90;;;;;;5136665;27;20024;-69
2023/08/05 04:22:08;;;;;;;3.67;2.05;;;17.60;99.90;;;;;;5136815;27;20027;-69
2023/08/05 04:24:35;;;;;;;3.00;2.05;;;17.70;99.90;;;;;;5136384;27;20039;-69
2023/08/05 04:27:01;;;;;;;3.78;1.90;;;17.70;99.90;;;;;;5136514;27;20046;-69
2023/08/05 04:29:27;;;;;;;3.30;1.95;;;17.70;99.90;;;;;;5121136;27;20019;-69
2023/08/05 04:31:53;;;;;;;5.88;2.08;;;17.70;99.90;;;;;;5115836;28;20035;-69
2023/08/05 04:34:19;;;;;;;3.70;2.40;;;17.70;99.90;;;;;;5115371;28;20020;-69
2023/08/05 04:36:49;;;;;;;4.60;2.45;;;17.80;99.90;;;;;;5115625;28;20376;-69
2023/08/05 04:39:15;;;;;;;2.97;2.22;;;17.80;99.90;;;;;;5115209;28;20030;-69
2023/08/05 04:41:41;;;;;;;5.00;2.30;;;17.80;99.90;;;;;;5115861;28;20028;-69
2023/08/05 04:44:06;;;;;;;5.60;2.15;;;17.80;99.90;;;;;;5097336;28;20027;-69
2023/08/05 04:46:32;;;;;;;2.85;2.10;;;17.80;99.90;;;;;;5115115;28;20059;-69
2023/08/05 04:48:57;;;;;;;6.70;2.15;;;17.80;99.90;;;;;;5115190;28;20044;-69
2023/08/05 04:51:23;;;;;;;3.45;2.60;;;17.80;99.90;;;;;;5114954;28;20031;-69
2023/08/05 04:53:49;;;;;;;2.53;2.08;;;17.80;99.90;;;;;;5115105;28;20063;-69
2023/08/05 04:56:14;;;;;;;5.25;2.53;;;17.90;99.90;;;;;;5114698;28;20026;-69
2023/08/05 04:58:40;;;;;;;3.75;2.10;;;17.90;99.90;;;;;;5115158;28;20073;-69
2023/08/05 05:01:05;;;;;;;3.95;2.35;;;17.90;99.90;;;;;;5122296;27;20031;-69
2023/08/05 05:03:31;;;;;;;5.63;2.30;;;17.90;99.90;;;;;;5135347;27;20443;-69
2023/08/05 05:05:57;;;;;;;5.15;2.05;;;17.90;99.90;;;;;;5136126;27;20027;-69
2023/08/05 05:08:23;;;;;;;5.97;2.83;;;17.90;99.90;;;;;;5135782;27;20442;-70
2023/08/05 05:10:49;;;;;;;7.13;3.08;;;17.90;99.90;;;;;;5137218;27;20035;-69
2023/08/05 05:13:14;;;;;;;5.22;2.50;;;17.90;99.90;;;;;;5136224;27;20383;-70
2023/08/05 05:15:40;;;;;;;5.85;2.95;;;17.90;99.90;;;;;;5136284;27;20045;-69
2023/08/05 05:18:06;;;;;;;4.53;2.80;;;17.90;99.90;;;;;;5136267;27;20031;-69
2023/08/05 05:20:31;;;;;;;5.28;2.78;;;17.90;99.90;;;;;;5135641;27;20504;-69
2023/08/05 05:22:57;;;;;;;4.95;2.33;;;17.90;99.90;;;;;;5135916;27;20121;-69
2023/08/05 05:25:23;;;;;;;5.53;2.40;;;17.90;99.90;;;;;;5116443;27;20030;-69
2023/08/05 05:27:48;;;;;;;5.93;2.50;;;17.80;99.90;;;;;;5135302;27;20446;-69
2023/08/05 05:30:14;;;;;;;3.28;2.25;;;17.80;99.90;;;;;;5134721;27;20110;-73
2023/08/05 05:32:40;;;;;;;6.72;2.75;;;17.80;99.90;;;;;;5135374;27;20027;-69
2023/08/05 05:35:05;;;;;;;4.85;2.80;;;17.80;99.90;;;;;;5116790;27;20019;-69
2023/08/05 05:37:31;;;;;;;5.45;2.55;;;17.80;99.90;;;;;;5134751;27;20023;-69
2023/08/05 05:39:57;;;;;;;4.75;2.40;;;17.80;99.90;;;;;;5135225;27;20402;-69
2023/08/05 05:42:22;;;;;;;4.15;2.63;;;17.70;99.90;;;;;;5116213;27;20161;-69
2023/08/05 05:44:52;;;;;;;3.67;2.58;;;17.70;99.90;;;;;;5134352;27;20099;-69
2023/08/05 05:47:19;;;;;;;4.95;2.53;;;17.70;99.90;;;;;;5134688;27;20148;-70
2023/08/05 05:49:44;;;;;;;5.45;2.50;;;17.70;99.90;;;;;;5134559;27;20043;-69
2023/08/05 05:52:13;;;;;;;4.70;2.13;;;17.70;99.90;;;;;;5134903;27;20052;-69
2023/08/05 05:54:39;;;;;;;5.65;2.50;;;17.70;99.90;;;;;;5134363;27;20023;-69
2023/08/05 05:57:04;;;;;;;3.45;2.28;;;17.70;99.90;;;;;;5134509;27;20026;-69
2023/08/05 05:59:30;;;;;;;5.63;2.53;;;17.70;99.90;;;;;;5115890;27;20102;-69
2023/08/05 06:01:56;;;;;;;5.60;2.72;;;17.70;99.90;;;;;;5134661;27;20507;-69
2023/08/05 06:04:24;;;;;;;5.45;2.58;;;17.70;99.90;;;;;;5134218;27;20031;-70
2023/08/05 06:06:50;;;;;;;3.88;2.35;;;17.70;99.90;;;;;;5134570;27;20043;-69
2023/08/05 06:09:15;;;;;;;2.83;2.20;;;17.70;99.90;;;;;;5134481;27;20023;-70
2023/08/05 06:11:41;;;;;;;4.18;2.20;;;17.70;99.90;;;;;;5133061;27;20056;-69
2023/08/05 06:14:06;;;;;;;2.55;2.35;;;17.70;99.90;;;;;;5115991;27;20031;-69
2023/08/05 06:16:32;;;;;;;4.03;2.20;;;17.70;99.90;;;;;;5134239;27;20076;-69
2023/08/05 06:18:57;;;;;;;9.80;2.50;;;17.70;99.90;;;;;;5134088;27;20423;-69
2023/08/05 06:21:23;;;;;;;4.32;2.60;;;17.70;99.90;;;;;;5133915;27;20031;-69
2023/08/05 06:23:49;;;;;;;6.50;2.97;;;17.70;99.90;;;;;;5134643;27;20026;-69
2023/08/05 06:26:14;;;;;;;5.80;2.90;;;17.70;99.90;;;;;;5134347;27;20072;-70
2023/08/05 06:28:40;;;;;;;5.72;2.65;;;17.80;99.90;;;;;;5126373;27;20015;-70
2023/08/05 06:31:05;;;;;;;3.83;2.85;;;17.80;99.90;;;;;;5113531;28;20041;-70
2023/08/05 06:33:31;;;;;;;3.80;2.65;;;17.80;99.90;;;;;;5113573;28;20371;-70
2023/08/05 06:35:57;;;;;;;5.30;2.80;;;17.80;99.90;;;;;;5113667;28;20097;-70
2023/08/05 06:38:24;;;;;;;4.60;2.80;;;17.80;99.90;;;;;;5113115;28;20019;-70
2023/08/05 06:40:51;;;;;;;5.68;3.30;;;17.80;99.90;;;;;;5113713;28;20028;-70
2023/08/05 06:43:17;;;;;;;4.22;2.80;;;17.90;99.90;;;;;;5113462;28;20126;-70
2023/08/05 06:45:43;;;;;;;6.00;3.10;;;17.90;99.90;;;;;;5113229;28;20523;-70
2023/08/05 06:48:08;;;;;;;4.18;3.05;;;17.90;99.90;;;;;;5113194;28;20031;-70
2023/08/05 06:50:34;;;;;;;5.00;2.97;;;17.90;99.90;;;;;;5113114;28;20036;-70
2023/08/05 06:53:00;;;;;;;5.50;3.08;;;17.90;99.90;;;;;;5113247;28;20051;-70
2023/08/05 06:55:25;;;;;;;7.05;3.20;;;17.90;99.90;;;;;;5112959;28;20081;-70
2023/08/05 06:57:51;;;;;;;3.75;2.78;;;17.90;99.90;;;;;;5112994;28;20050;-70
2023/08/05 07:00:17;;;;;;;6.30;3.20;;;17.90;99.90;;;;;;5112922;28;20042;-70
2023/08/05 07:02:43;;;;;;;2.63;2.40;;;17.90;99.90;;;;;;5128629;28;20032;-70
2023/08/05 07:05:08;;;;;;;3.20;2.42;;;17.90;99.90;;;;;;5133622;28;20030;-70
2023/08/05 07:07:34;;;;;;;3.60;2.63;;;17.90;99.90;;;;;;5132953;28;20027;-70
2023/08/05 07:10:07;;;;;;;5.40;2.53;;;17.90;99.90;;;;;;5133187;28;20035;-70
2023/08/05 07:12:36;;;;;;;2.55;2.33;;;17.90;99.90;;;;;;5114565;28;20034;-70
2023/08/05 07:15:02;;;;;;;3.20;2.00;;;17.80;99.90;;;;;;5133740;28;20027;-70
2023/08/05 07:17:28;;;;;;;5.00;2.47;;;17.80;99.90;;;;;;5133417;28;20027;-69
2023/08/05 07:19:53;;;;;;;3.17;2.03;;;17.80;99.90;;;;;;5133495;28;20379;-70
2023/08/05 07:22:19;;;;;;;6.05;2.30;;;17.80;99.90;;;;;;5115659;27;20020;-70
2023/08/05 07:24:45;;;;;;;3.40;2.40;;;17.80;99.90;;;;;;5137306;27;20471;-70
2023/08/05 07:27:10;;;;;;;4.30;2.40;;;17.80;99.90;;;;;;5119153;27;20031;-70
2023/08/05 07:29:38;;;;;;;4.18;2.40;;;17.80;99.90;;;;;;5137175;27;20035;-70
2023/08/05 07:32:04;;;;;;;4.85;2.67;;;17.80;99.90;;;;;;5137522;27;20088;-70
2023/08/05 07:34:31;;;;;;;3.45;2.22;;;17.80;99.90;;;;;;5137089;27;20037;-70
2023/08/05 07:36:58;;;;;;;4.85;2.30;;;17.80;99.90;;;;;;5137674;27;20393;-70
2023/08/05 07:39:28;;;;;;;3.83;2.22;;;17.80;99.90;;;;;;5136962;27;20125;-73
2023/08/05 07:41:53;;;;;;;6.15;2.63;;;17.80;99.90;;;;;;5137009;27;20026;-70
2023/08/05 07:44:19;;;;;;;5.80;2.83;;;17.80;99.90;;;;;;5118947;27;20019;-70
2023/08/05 07:46:47;;;;;;;3.25;2.28;;;17.80;99.90;;;;;;5136900;27;20391;-70
2023/08/05 07:49:13;;;;;;;5.20;3.03;;;17.80;99.90;;;;;;5137205;27;20138;-70
2023/08/05 07:51:39;;;;;;;4.13;2.92;;;17.80;99.90;;;;;;5136613;27;20549;-70
2023/08/05 07:54:05;;;;;;;5.03;3.30;;;17.80;99.90;;;;;;5137112;27;20371;-70
2023/08/05 07:56:32;;;;;;;7.25;3.40;;;17.80;99.90;;;;;;5136552;27;20027;-70
2023/08/05 07:58:58;;;;;;;6.68;2.88;;;17.80;99.90;;;;;;5137031;27;20102;-70
2023/08/05 08:01:23;;;;;;;4.18;2.97;;;17.90;99.90;;;;;;5118500;27;20123;-70
2023/08/05 08:04:01;;;;;;;6.65;2.88;;;17.90;99.90;;;;;;5136451;27;20023;-70
2023/08/05 08:06:27;;;;;;;4.57;3.20;;;17.90;99.90;;;;;;5136679;27;20019;-70
2023/08/05 08:08:52;;;;;;;4.00;3.10;;;17.90;99.90;;;;;;5137184;27;20023;-70
2023/08/05 08:11:18;;;;;;;3.53;2.88;;;17.90;99.90;;;;;;5136636;27;20455;-69
2023/08/05 08:13:44;;;;;;;7.57;3.40;;;17.90;99.90;;;;;;5136522;27;20029;-69
2023/08/05 08:16:09;;;;;;;4.53;2.88;;;17.90;99.90;;;;;;5136746;27;20107;-69
2023/08/05 08:18:35;;;;;;;7.82;3.65;;;17.90;99.90;;;;;;5136025;27;20019;-69
2023/08/05 08:21:01;;;;;;;6.38;2.90;;;17.90;99.90;;;;;;5136183;27;20027;-69
2023/08/05 08:23:26;;;;;;;5.10;3.08;;;18.00;99.90;;;;;;5136402;27;20054;-73
2023/08/05 08:25:52;;;;;;;3.80;3.20;;;18.00;99.90;;;;;;5122573;27;20031;-69
2023/08/05 08:28:18;;;;;;;4.70;3.10;;;18.00;99.90;;;;;;5097544;28;20027;-69
2023/08/05 08:30:54;;;;;;;7.43;3.10;;;17.90;99.90;;;;;;5114809;28;20039;-69
2023/08/05 08:33:23;;;;;;;5.05;2.90;;;17.90;99.90;;;;;;5115532;28;20041;-69
2023/08/05 08:35:49;;;;;;;7.55;3.42;;;18.00;99.90;;;;;;5114330;28;20170;-69
2023/08/05 08:38:16;;;;;;;6.22;3.53;;;18.00;99.90;;;;;;5115723;28;20133;-69
2023/08/05 08:40:52;;;;;;;3.92;3.10;;;18.00;99.90;;;;;;5115213;28;20118;-69
2023/08/05 08:43:19;;;;;;;6.03;2.95;;;18.00;99.90;;;;;;5115498;28;20529;-69
2023/08/05 08:45:48;;;;;;;4.55;2.90;;;18.00;99.90;;;;;;5115056;28;20035;-69
2023/08/05 08:48:17;;;;;;;7.10;3.70;;;18.00;99.90;;;;;;5115240;28;20141;-69
2023/08/05 08:50:44;;;;;;;7.47;3.50;;;18.00;99.90;;;;;;5114961;28;20036;-69
2023/08/05 08:53:13;;;;;;;4.88;3.40;;;18.00;99.90;;;;;;5115339;28;20028;-70
2023/08/05 08:55:43;;;;;;;6.65;3.45;;;18.00;99.90;;;;;;5114969;28;20051;-69
2023/08/05 08:58:12;;;;;;;3.83;3.42;;;18.00;99.90;;;;;;5115289;28;20035;-70
2023/08/05 09:00:38;;;;;;;5.10;3.63;;;18.00;99.90;;;;;;5114812;28;20036;-71
2023/08/05 09:03:06;;;;;;;7.57;3.90;;;18.10;99.90;;;;;;5133992;27;20031;-70
2023/08/05 09:05:44;;;;;;;4.82;3.33;;;18.00;99.90;;;;;;5135410;27;20471;-71
2023/08/05 09:08:09;;;;;;;5.22;3.72;;;18.10;99.90;;;;;;5135895;27;20034;-70
2023/08/05 09:10:37;;;;;;;5.70;4.00;;;18.10;99.90;;;;;;5135162;27;20031;-69
2023/08/05 09:13:04;;;;;;;7.75;3.67;;;18.00;99.90;;;;;;5117295;27;20179;-71
2023/08/05 09:15:35;;;;;;;4.47;3.85;;;18.00;99.90;;;;;;5135906;27;20027;-70
2023/08/05 09:18:03;;;;;;;6.45;4.90;;;18.00;99.90;;;;;;5135563;27;20112;-71
2023/08/05 09:20:31;;;;;;;7.70;4.35;;;18.00;99.90;;;;;;5135478;27;20023;-70
2023/08/05 09:23:03;;;;;;;6.72;3.95;;;18.00;99.90;;;;;;5135652;27;20023;-70
2023/08/05 09:25:30;;;;;;;5.60;3.60;;;18.00;99.90;;;;;;5135413;27;20019;-70
2023/08/05 09:27:57;;;;;;;4.78;4.10;;;18.00;99.90;;;;;;5134841;27;20080;-70
2023/08/05 09:30:24;;;;;;;4.55;3.42;;;18.00;99.90;;;;;;5135199;27;20035;-70
2023/08/05 09:32:52;;;;;;;5.90;3.58;;;18.00;99.90;;;;;;5134777;27;20023;-70
2023/08/05 09:35:18;;;;;;;5.45;3.38;;;18.10;99.90;;;;;;5135137;27;20027;-71
2023/08/05 09:37:48;;;;;;;4.78;3.20;;;18.00;99.90;;;;;;5134738;27;20520;-70
2023/08/05 09:40:36;;;;;;;3.72;3.00;;;18.00;99.90;;;;;;5135119;27;20063;-70
2023/08/05 09:43:03;;;;;;;3.85;2.88;;;18.10;99.90;;;;;;5134916;27;20498;-70
2023/08/05 09:45:32;;;;;;;3.47;2.95;;;18.10;99.90;;;;;;5134210;27;20471;-70
2023/08/05 09:48:03;;;;;;;4.88;3.13;;;18.00;99.90;;;;;;5135009;27;20023;-70
2023/08/05 09:50:30;;;;;;;3.42;3.00;;;18.00;99.90;;;;;;5134533;27;20039;-70
2023/08/05 09:53:00;;;;;;;3.78;3.08;;;17.90;99.90;;;;;;5134493;27;20032;-70
2023/08/05 09:55:29;;;;;;;3.25;2.85;;;17.90;99.90;;;;;;5134640;27;20467;-70
2023/08/05 09:57:55;;;;;;;3.75;3.38;;;17.90;99.90;;;;;;5134366;27;20027;-70
2023/08/05 10:00:22;;;;;;;5.57;3.28;;;17.90;99.90;;;;;;5134696;27;20027;-70
2023/08/05 10:02:48;;;;;;;3.53;3.22;;;17.90;99.90;;;;;;5134187;27;20061;-70
2023/08/05 10:05:14;;;;;;;4.82;3.10;;;17.90;99.90;;;;;;5134559;27;20476;-70
2023/08/05 10:07:40;;;;;;;5.13;2.83;;;17.80;99.90;;;;;;5115777;27;20030;-70
2023/08/05 10:10:08;;;;;;;5.18;3.10;;;17.80;99.90;;;;;;5134461;27;20061;-70
2023/08/05 10:12:44;;;;;;;4.32;2.83;;;17.80;99.90;;;;;;5115902;27;20033;-71
2023/08/05 10:15:13;;;;;;;3.92;2.80;;;17.80;99.90;;;;;;5116139;27;20058;-70
2023/08/05 10:17:40;;;;;;;4.88;2.30;;;17.80;99.90;;;;;;5115510;27;20109;-71
2023/08/05 10:20:07;;;;;;;4.95;2.70;;;17.80;99.90;;;;;;5134405;27;20030;-70
2023/08/05 10:22:33;;;;;;;2.70;2.50;;;17.80;99.90;;;;;;5132217;27;20047;-71
2023/08/05 10:25:00;;;;;;;3.22;2.42;;;17.80;99.90;;;;;;5115407;27;20416;-71
2023/08/05 10:27:43;;;;;;;5.15;2.58;;;17.80;99.90;;;;;;5134139;27;20031;-70
2023/08/05 10:30:09;;;;;;;2.75;2.33;;;17.80;99.90;;;;;;5134190;27;20038;-71
2023/08/05 10:32:35;;;;;;;2.60;2.10;;;17.80;99.90;;;;;;5134043;27;20461;-70
2023/08/05 10:35:24;;;;;;;2.38;1.95;;;17.80;99.90;;;;;;5133598;27;20026;-70
2023/08/05 10:37:55;;;;;;;2.10;1.90;;;17.80;99.90;;;;;;5133617;27;20034;-70
2023/08/05 10:40:51;;;;;;;3.05;2.08;;;17.80;99.90;;;;;;5134105;27;20051;-70
2023/08/05 10:43:35;;;;;;;1.98;1.75;;;17.80;99.90;;;;;;5133992;27;20058;-69
2023/08/05 10:46:09;;;;;;;2.10;1.88;;;17.80;99.90;;;;;;5133339;27;20042;-69
2023/08/05 10:48:42;;;;;;;2.30;2.00;;;17.90;99.90;;;;;;5133702;27;20048;-69
2023/08/05 10:51:11;;;;;;;2.92;1.95;;;17.90;99.90;;;;;;5133957;27;20035;-71
2023/08/05 10:53:37;;;;;;;2.30;2.03;;;17.90;99.90;;;;;;5133298;27;20349;-70
2023/08/05 10:56:12;;;;;;;2.72;2.00;;;17.90;99.90;;;;;;5133573;27;20028;-69
2023/08/05 10:58:50;;;;;;;2.33;1.83;;;17.90;99.90;;;;;;5133350;27;20451;-69
2023/08/05 11:01:16;;;;;;;3.05;2.13;;;17.90;99.90;;;;;;5134220;27;20031;-69
2023/08/05 11:03:56;;;;;;;2.85;1.95;;;17.90;99.90;;;;;;5133328;28;20023;-69
2023/08/05 11:06:24;;;;;;;4.93;1.80;;;17.90;99.90;;;;;;5133494;28;20068;-69
2023/08/05 11:08:50;;;;;;;1.85;1.75;;;18.00;99.90;;;;;;5133161;28;20095;-70
2023/08/05 11:11:16;;;;;;;4.20;3.63;;;17.90;99.90;;;;;;5133462;28;20454;-69
2023/08/05 11:13:46;;;;;;;4.38;2.45;;;17.90;99.90;;;;;;5133098;28;20051;-70
2023/08/05 11:16:14;;;;;;;2.85;1.98;;;17.90;99.90;;;;;;5133612;28;20101;-69
2023/08/05 11:18:42;;;;;;;3.33;2.88;;;17.90;99.90;;;;;;5133598;28;20436;-69
2023/08/05 11:21:13;;;;;;;5.20;3.75;;;17.80;99.90;;;;;;5133997;28;20091;-69
2023/08/05 11:23:40;;;;;;;2.55;2.33;;;17.80;99.90;;;;;;5133608;28;20475;-69
2023/08/05 11:26:06;;;;;;;2.70;2.45;;;17.80;99.90;;;;;;5133405;28;20034;-69
2023/08/05 11:28:32;;;;;;;2.67;2.42;;;17.80;99.90;;;;;;5133450;28;20068;-69
2023/08/05 11:31:00;;;;;;;2.92;2.30;;;17.80;99.90;;;;;;5132942;28;20139;-69
2023/08/05 11:33:27;;;;;;;4.05;2.35;;;17.80;99.90;;;;;;5133060;28;20456;-69
2023/08/05 11:35:53;;;;;;;3.80;3.05;;;17.80;99.90;;;;;;5114685;28;20027;-70
2023/08/05 11:38:21;;;;;;;3.80;2.92;;;17.80;99.90;;;;;;5133459;28;20447;-69
2023/08/05 11:40:57;;;;;;;5.30;2.90;;;17.80;99.90;;;;;;5132957;28;20090;-69
2023/08/05 11:43:23;;;;;;;14.45;9.45;;;17.80;99.90;;;;;;5133112;28;20030;-70
2023/08/05 11:45:51;;;;;;;4.43;2.38;;;17.80;99.90;;;;;;5132996;28;20019;-70
2023/08/05 11:48:26;;;;;;;3.90;2.80;;;17.80;99.90;;;;;;5133292;27;20043;-70
2023/08/05 11:51:00;;;;;;;3.88;2.70;;;17.80;99.90;;;;;;5132827;28;20118;-70
2023/08/05 11:53:29;;;;;;;5.97;3.03;;;17.80;99.90;;;;;;5132948;28;20019;-70
2023/08/05 11:55:55;;;;;;;3.15;2.13;;;17.80;99.90;;;;;;5132513;28;20028;-70
2023/08/05 11:58:23;;;;;;;3.25;2.13;;;17.90;99.90;;;;;;5133196;28;20019;-71
2023/08/05 12:00:53;;;;;;;3.47;2.15;;;17.80;99.90;;;;;;5132782;28;20056;-70
2023/08/05 12:03:19;;;;;;;2.55;2.20;;;17.80;99.90;;;;;;5133296;28;20118;-70
2023/08/05 12:05:46;;;;;;;3.05;2.38;;;17.80;99.90;;;;;;5132798;28;20103;-71
2023/08/05 12:08:12;;;;;;;3.45;2.10;;;17.70;99.90;;;;;;5133157;27;20031;-69
2023/08/05 12:10:39;;;;;;;3.85;2.65;;;17.70;99.90;;;;;;5135613;27;20035;-69
2023/08/05 12:13:10;;;;;;;2.20;2.00;;;17.70;99.90;;;;;;5136467;27;20031;-70
2023/08/05 12:15:36;;;;;;;2.72;1.58;;;17.60;99.90;;;;;;5137149;27;20033;-70
2023/08/05 12:18:05;;;;;;;3.42;2.08;;;17.60;99.90;;;;;;5136294;27;20027;-70
2023/08/05 12:20:34;;;;;;;2.45;2.15;;;17.60;99.90;;;;;;5114962;27;20049;-69
2023/08/05 12:23:01;;;;;;;2.60;2.05;;;17.60;99.90;;;;;;5136213;27;20023;-70
2023/08/05 12:25:28;;;;;;;2.40;1.90;;;17.70;99.90;;;;;;5118163;27;20047;-69
2023/08/05 12:27:54;;;;;;;3.00;2.50;;;17.70;99.90;;;;;;5117816;27;20057;-70
2023/08/05 12:30:20;;;;;;;2.50;2.20;;;17.70;99.90;;;;;;5136517;27;20035;-70
2023/08/05 12:32:46;;;;;;;2.90;1.80;;;17.70;99.90;;;;;;5135795;27;20027;-70
2023/08/05 12:35:12;;;;;;;2.63;1.60;;;17.70;99.90;;;;;;5136587;27;20119;-69
2023/08/05 12:37:39;;;;;;;1.75;1.55;;;17.70;99.90;;;;;;5136378;27;20030;-69
2023/08/05 12:40:07;;;;;;;2.20;1.27;;;17.70;99.90;;;;;;5135889;27;20084;-69
2023/08/05 12:42:33;;;;;;;2.65;1.48;;;17.70;99.90;;;;;;5136721;27;20046;-69
2023/08/05 12:45:03;;;;;;;1.48;1.10;;;17.70;99.90;;;;;;5135510;27;20038;-70
2023/08/05 12:47:32;;;;;;;1.60;1.45;;;17.70;99.90;;;;;;5136386;27;20102;-69